Forside
METAR-TAF:

METAR-TAF

Lufthavne :

Mosinee, Wisconsin, USA

Breddekreds: 44-47N, længdekreds: 089-40W, højde: 389 m

Aktuelle vejr

Denne rapport blev lavet for 26 minutter siden, kl. 11:47 UTC
Vind stille
Temperatur 13°C
Fugtighed 94%
Tryk 1020 hPa
Sigt: 16.1 km
Nogle få skyer i en højde af 12000 ft

METAR: KCWA 121147Z 00000KT 10SM FEW120 13/12 A3013

Tid: 07:13 (12:13 UTC)

Vejrudsigter

Denne rapport blev lavet for 42 minutter siden, kl. 11:31 UTC
Foreløbig gælder fra 12 på 12 UTC til 13 på 12 UTC
Vind 3 kt fra varierende retninger
Sigt: 10 km
Spredte skyer i en højde af 12000 ft
Fra 12 på 1500 UTC
Vind 6 kt fra syd
Sigt: 10 km
skyfri
Fra 13 på 0100 UTC
Vind 4 kt fra østsydøst
Sigt: 10 km
Spredte skyer i en højde af 10000 ft

TAF: KCWA 121131Z 1212/1312 VRB03KT P6SM SCT120 FM121500 17006KT P6SM SKC FM130100 12004KT P6SM SCT100

Vejrobservationer og prognoser fra mere end 4000 lufthavne (METAR og TAF).

De gule og røde prikker repræsenterer de meteorologiske stationer.

Flyt musen over at se navnet på stationen.

Så klik over at se vejr observationer og prognoser.

At skifte det kort: Klik på de grønne knapper med et sort kors for at zoome ind; på den grønne knap med en bindestreg for at zoome ud; eller på de grønne pile for tilstødende kort.


METAR-TAF: